Time;durP1;ratioP1;P1;durP2;ratioP2;P2;SDS_P1;SDS_P2;PMS_P1;PMS_P2;Temp;Humidity;BMP_temperature;BMP_pressure;BME280_temperature;BME280_humidity;BME280_pressure;Samples;Min_cycle;Max_cycle;Signal;HPM_P1;HPM_P2
2023/05/25 00:02:14;;;;;;;6.83;3.13;;;11.50;56.30;;;14.42;40.51;98024.50;5030912;28;20037;-50
2023/05/25 00:04:42;;;;;;;10.47;3.50;;;11.40;56.30;;;14.39;40.32;98019.50;5031165;28;20489;-45
2023/05/25 00:07:09;;;;;;;10.87;3.93;;;11.40;56.30;;;14.37;40.57;98025.03;5046135;28;20038;-47
2023/05/25 00:09:37;;;;;;;10.73;3.80;;;11.40;56.40;;;14.37;40.95;98021.53;5031187;28;20054;-48
2023/05/25 00:12:06;;;;;;;10.37;4.33;;;11.40;56.60;;;14.36;40.70;98026.06;5030581;28;20045;-45
2023/05/25 00:14:33;;;;;;;7.13;3.27;;;11.40;56.70;;;14.34;40.90;98024.53;5031591;28;20053;-50
2023/05/25 00:17:02;;;;;;;7.88;3.67;;;11.40;57.00;;;14.32;40.78;98022.03;5030720;28;20048;-45
2023/05/25 00:19:33;;;;;;;11.00;4.07;;;11.40;57.10;;;14.31;40.97;98017.69;5031148;28;20045;-45
2023/05/25 00:22:01;;;;;;;10.98;3.45;;;11.30;57.40;;;14.30;41.00;98020.53;5030594;28;20048;-45
2023/05/25 00:24:29;;;;;;;8.47;3.07;;;11.30;57.50;;;14.27;40.99;98018.22;5038083;28;20041;-45
2023/05/25 00:26:57;;;;;;;6.47;3.53;;;11.30;57.60;;;14.25;41.00;98017.56;5030599;28;20040;-46
2023/05/25 00:29:25;;;;;;;7.57;4.07;;;11.30;57.60;;;14.21;41.14;98013.56;5030929;28;20409;-47
2023/05/25 00:31:53;;;;;;;6.37;3.10;;;11.20;57.90;;;14.14;41.21;98013.44;5029179;28;20049;-44
2023/05/25 00:34:21;;;;;;;8.63;3.50;;;11.10;58.00;;;14.10;41.21;98004.91;5031103;28;20050;-48
2023/05/25 00:36:49;;;;;;;12.20;5.47;;;11.10;58.20;;;14.08;41.47;98006.94;5030103;28;20048;-44
2023/05/25 00:39:20;;;;;;;10.20;3.90;;;11.10;58.40;;;14.06;41.48;98011.63;5029610;28;20058;-44
2023/05/25 00:41:48;;;;;;;9.73;3.80;;;11.10;58.70;;;14.03;41.66;98016.50;5029274;28;20041;-45
2023/05/25 00:44:20;;;;;;;7.83;3.33;;;11.00;58.80;;;13.97;41.77;98010.00;5037427;28;20053;-46
2023/05/25 00:46:50;;;;;;;11.60;4.07;;;10.90;58.90;;;13.92;41.93;98015.03;5029532;28;20045;-45
2023/05/25 00:49:21;;;;;;;6.03;4.03;;;10.80;59.70;;;13.86;42.01;98010.38;5029273;28;20052;-45
2023/05/25 00:51:51;;;;;;;8.80;3.67;;;10.80;60.00;;;13.82;42.17;98012.56;5030176;28;20046;-47
2023/05/25 00:54:19;;;;;;;7.30;3.60;;;10.70;60.20;;;13.75;42.15;98012.41;5030888;28;20049;-48
2023/05/25 00:56:56;;;;;;;9.07;3.17;;;10.70;60.40;;;13.72;42.28;98015.44;5030470;28;20065;-53
2023/05/25 00:59:43;;;;;;;8.90;3.13;;;10.60;61.00;;;13.66;42.41;98023.31;5029367;28;20045;-46
2023/05/25 01:02:15;;;;;;;6.97;3.67;;;10.50;61.40;;;13.61;42.80;98012.28;5037390;28;20042;-46
2023/05/25 01:04:58;;;;;;;7.23;3.23;;;10.50;62.10;;;13.55;42.72;98012.00;5030477;28;20041;-45
2023/05/25 01:07:29;;;;;;;8.68;3.40;;;10.40;62.30;;;13.54;42.67;98015.66;5023551;28;20037;-46
2023/05/25 01:10:03;;;;;;;5.43;4.10;;;10.40;62.70;;;13.48;42.83;98010.16;5029030;28;20116;-46
2023/05/25 01:12:38;;;;;;;6.75;3.70;;;10.30;63.10;;;13.43;43.08;98004.47;5030483;28;20042;-45
2023/05/25 01:15:07;;;;;;;5.87;3.27;;;10.20;62.70;;;13.42;43.29;98010.84;5030194;28;20041;-44
2023/05/25 01:17:36;;;;;;;9.63;4.60;;;10.20;63.00;;;13.44;43.15;98003.50;5045798;28;20049;-49
2023/05/25 01:20:06;;;;;;;8.67;3.87;;;10.30;63.20;;;13.42;43.33;98002.81;5029118;28;20068;-47
2023/05/25 01:22:54;;;;;;;8.73;3.87;;;10.30;63.30;;;13.38;43.62;98005.00;5029111;28;20049;-45
2023/05/25 01:25:38;;;;;;;7.60;3.53;;;10.10;64.10;;;13.41;43.55;98010.00;5026174;28;20038;-45
2023/05/25 01:28:25;;;;;;;6.32;3.33;;;10.20;64.10;;;13.43;43.69;98007.16;5032320;28;20057;-45
2023/05/25 01:30:56;;;;;;;7.50;3.50;;;10.30;64.10;;;13.42;43.88;98006.34;5032479;28;20386;-46
2023/05/25 01:33:25;;;;;;;8.60;3.70;;;10.30;64.10;;;13.42;43.55;98002.81;5033806;28;20049;-45
2023/05/25 01:35:53;;;;;;;6.90;3.40;;;10.20;63.50;;;13.45;43.32;97997.13;5016269;28;20057;-44
2023/05/25 01:38:20;;;;;;;6.17;3.43;;;10.30;62.60;;;13.46;43.25;98004.16;5034257;28;20052;-49
2023/05/25 01:40:48;;;;;;;9.07;3.80;;;10.30;62.70;;;13.48;43.45;98002.97;5031935;28;20050;-46
2023/05/25 01:43:16;;;;;;;10.77;3.83;;;10.40;62.80;;;13.53;43.43;98011.31;5031785;28;20042;-48
2023/05/25 01:45:43;;;;;;;8.50;3.77;;;10.50;62.70;;;13.48;43.46;98008.31;5034135;28;20042;-44
2023/05/25 01:48:30;;;;;;;10.33;3.87;;;10.30;63.10;;;13.48;43.42;98007.50;5032024;28;20052;-44
2023/05/25 01:51:14;;;;;;;7.23;3.57;;;10.30;63.30;;;13.54;43.50;98012.97;5015875;28;20045;-45
2023/05/25 01:53:50;;;;;;;8.10;3.08;;;10.50;63.20;;;13.57;43.43;98007.31;5032184;28;20041;-45
2023/05/25 01:56:20;;;;;;;8.97;3.77;;;10.50;62.70;;;13.61;43.24;98009.63;5024968;28;20045;-44
2023/05/25 01:58:50;;;;;;;11.67;4.40;;;10.60;62.20;;;13.65;43.46;98008.25;5032274;28;20045;-45
2023/05/25 02:01:21;;;;;;;5.77;2.93;;;10.60;62.10;;;13.67;43.60;98003.59;5024512;28;20038;-47
2023/05/25 02:03:50;;;;;;;10.30;3.60;;;10.70;62.00;;;13.71;43.43;98010.28;5032416;28;20042;-45
2023/05/25 02:06:17;;;;;;;7.87;3.60;;;10.70;61.80;;;13.72;43.11;98006.56;5031553;28;20040;-45
2023/05/25 02:08:45;;;;;;;8.57;4.03;;;10.70;61.90;;;13.71;43.44;98011.09;5015674;28;20045;-47
2023/05/25 02:11:13;;;;;;;11.60;3.83;;;10.70;62.00;;;13.72;43.30;98010.06;5031308;28;20046;-45
2023/05/25 02:13:41;;;;;;;7.53;3.37;;;10.70;61.70;;;13.74;43.25;97999.22;5033357;28;20413;-47
2023/05/25 02:16:09;;;;;;;8.23;3.67;;;10.70;61.80;;;13.73;43.35;97998.38;5031024;28;20437;-45
2023/05/25 02:18:36;;;;;;;9.33;3.83;;;10.70;61.70;;;13.75;43.33;97996.38;5031531;28;20053;-48
2023/05/25 02:21:04;;;;;;;6.10;3.63;;;10.70;62.00;;;13.73;43.54;97993.03;5031087;28;20050;-46
2023/05/25 02:23:31;;;;;;;7.77;4.07;;;10.70;62.20;;;13.73;43.31;97994.88;5032908;28;20038;-45
2023/05/25 02:25:59;;;;;;;6.33;3.30;;;10.60;62.10;;;13.70;43.43;97985.34;5032554;28;20501;-45
2023/05/25 02:28:27;;;;;;;7.63;3.67;;;10.60;62.30;;;13.70;43.50;97988.00;5030136;28;20054;-49
2023/05/25 02:30:56;;;;;;;8.10;3.70;;;10.60;62.30;;;13.62;43.54;97977.34;5031153;28;20398;-44
2023/05/25 02:33:24;;;;;;;8.50;3.47;;;10.60;62.60;;;13.55;43.76;97982.56;5024726;28;20425;-49
2023/05/25 02:35:52;;;;;;;7.17;3.13;;;10.40;62.90;;;13.51;43.87;97983.06;5032518;28;20216;-46
2023/05/25 02:38:20;;;;;;;8.00;4.80;;;10.30;63.30;;;13.44;43.63;97980.25;5032580;28;20204;-46
2023/05/25 02:40:47;;;;;;;7.07;3.60;;;10.30;63.60;;;13.40;43.98;97981.59;5032335;28;20072;-49
2023/05/25 02:43:15;;;;;;;9.63;3.53;;;10.20;63.90;;;13.31;44.01;97980.78;5030896;28;20050;-46
2023/05/25 02:45:43;;;;;;;8.20;3.53;;;10.10;64.50;;;13.24;44.44;97984.25;5015457;28;20057;-49
2023/05/25 02:48:12;;;;;;;10.67;3.57;;;10.00;65.10;;;13.20;44.15;97987.28;5030903;28;20501;-46
2023/05/25 02:50:41;;;;;;;8.87;3.57;;;10.00;65.00;;;13.10;44.46;97983.13;5032605;28;20045;-49
2023/05/25 02:53:12;;;;;;;10.00;4.13;;;9.80;65.90;;;13.03;44.70;97985.63;5030786;28;20402;-49
2023/05/25 02:55:42;;;;;;;11.53;3.73;;;9.70;66.90;;;12.98;44.92;97991.47;5031055;28;20052;-50
2023/05/25 02:58:15;;;;;;;10.10;3.77;;;9.70;66.70;;;12.95;44.75;97998.97;5030890;28;20048;-47
2023/05/25 03:00:54;;;;;;;7.40;3.50;;;9.70;67.00;;;12.94;44.96;98000.00;5030294;28;20532;-47
2023/05/25 03:03:21;;;;;;;6.77;3.47;;;9.70;66.80;;;12.90;45.13;98004.00;5032133;28;20038;-47
2023/05/25 03:05:50;;;;;;;7.33;3.63;;;9.70;66.90;;;12.89;45.18;98002.31;5030560;28;20045;-45
2023/05/25 03:08:18;;;;;;;5.13;3.50;;;9.70;66.50;;;12.87;44.95;97999.84;5022997;28;20046;-47
2023/05/25 03:10:45;;;;;;;10.23;4.10;;;9.70;66.50;;;12.83;45.09;98006.50;5030187;28;20497;-45
2023/05/25 03:13:13;;;;;;;9.97;3.70;;;9.70;66.50;;;12.80;45.16;97999.66;5030930;28;20049;-44
2023/05/25 03:15:41;;;;;;;5.40;3.57;;;9.70;66.50;;;12.77;45.27;98009.84;5030184;28;20046;-45
2023/05/25 03:18:10;;;;;;;8.60;4.13;;;9.60;66.80;;;12.76;45.32;98005.53;5029979;28;20053;-46
2023/05/25 03:20:40;;;;;;;7.23;4.00;;;9.60;66.80;;;12.76;44.78;98008.19;5029996;28;20046;-45
2023/05/25 03:23:07;;;;;;;9.47;4.17;;;9.60;66.60;;;12.76;45.29;98003.69;5030802;28;20056;-44
2023/05/25 03:25:36;;;;;;;7.17;3.50;;;9.60;66.30;;;12.80;44.99;98009.53;5030181;28;20049;-46
2023/05/25 03:28:04;;;;;;;7.40;4.00;;;9.70;65.70;;;12.81;45.13;98000.50;5029407;28;20057;-46
2023/05/25 03:30:32;;;;;;;10.90;4.10;;;9.80;65.40;;;12.84;44.73;98007.34;5030774;28;20053;-50
2023/05/25 03:32:59;;;;;;;8.63;3.87;;;9.80;65.30;;;12.80;44.99;98012.19;5030229;28;20050;-45
2023/05/25 03:35:33;;;;;;;11.88;4.50;;;9.70;65.10;;;12.85;44.69;98001.81;5014668;28;20052;-48
2023/05/25 03:38:00;;;;;;;11.17;3.83;;;9.80;65.00;;;12.85;44.92;97998.31;5030063;28;20061;-46
2023/05/25 03:40:28;;;;;;;11.17;4.43;;;9.80;64.60;;;12.82;44.83;98006.69;5031337;28;20504;-47
2023/05/25 03:42:56;;;;;;;10.17;4.37;;;9.80;64.90;;;12.81;44.80;98011.19;5014389;28;20497;-46
2023/05/25 03:45:23;;;;;;;9.63;3.63;;;9.80;64.70;;;12.83;44.78;98006.50;5014059;28;20124;-45
2023/05/25 03:47:51;;;;;;;10.37;3.93;;;9.80;64.60;;;12.85;44.54;98009.00;5029481;28;20045;-47
2023/05/25 03:50:20;;;;;;;7.27;4.30;;;9.80;64.70;;;12.80;44.82;98010.34;5023241;28;20049;-45
2023/05/25 03:52:48;;;;;;;26.73;5.27;;;9.70;64.80;;;12.77;44.77;98015.19;5029951;28;20072;-48
2023/05/25 03:55:16;;;;;;;7.90;4.03;;;9.70;65.40;;;12.74;45.09;98019.03;5030531;28;20504;-45
2023/05/25 03:57:44;;;;;;;10.17;4.63;;;9.60;65.80;;;12.73;45.13;98021.88;5029795;28;20071;-44
2023/05/25 04:00:13;;;;;;;8.00;4.00;;;9.60;65.90;;;12.72;44.90;98028.22;5029835;28;20049;-47
2023/05/25 04:02:42;;;;;;;10.57;4.07;;;9.60;65.70;;;12.68;44.84;98040.22;5029702;28;20045;-46
2023/05/25 04:05:10;;;;;;;11.00;4.13;;;9.50;66.20;;;12.59;45.29;98037.53;5029850;28;20045;-47
2023/05/25 04:07:37;;;;;;;10.63;3.77;;;9.40;66.30;;;12.58;45.45;98032.34;5031102;28;20049;-44
2023/05/25 04:10:06;;;;;;;10.00;3.87;;;9.40;66.50;;;12.51;45.24;98039.38;5029224;28;20548;-44
2023/05/25 04:12:34;;;;;;;7.83;3.80;;;9.30;67.10;;;12.50;45.45;98035.00;5029693;28;20497;-46
2023/05/25 04:15:03;;;;;;;7.20;3.40;;;9.30;67.20;;;12.53;45.63;98043.53;5030434;28;20517;-46
2023/05/25 04:17:33;;;;;;;6.77;3.43;;;9.40;67.00;;;12.56;45.46;98039.69;5029819;28;20521;-44
2023/05/25 04:20:04;;;;;;;10.27;4.10;;;9.50;66.70;;;12.58;45.44;98048.38;5029071;28;20057;-48
2023/05/25 04:22:32;;;;;;;11.10;4.33;;;9.50;66.80;;;12.63;45.65;98045.25;5029989;28;20045;-45
2023/05/25 04:25:01;;;;;;;10.10;4.77;;;9.50;66.80;;;12.64;45.17;98050.41;5029489;28;20045;-46
2023/05/25 04:27:28;;;;;;;8.73;4.20;;;9.60;66.50;;;12.63;45.59;98048.72;5027817;28;20060;-45
2023/05/25 04:29:57;;;;;;;6.20;3.60;;;9.60;66.60;;;12.64;45.65;98054.91;5028324;28;20052;-46
2023/05/25 04:32:56;;;;;;;11.30;4.27;;;9.50;66.80;;;12.64;45.66;98053.09;5027435;28;20050;-46
2023/05/25 04:35:36;;;;;;;7.63;3.73;;;9.50;67.30;;;12.64;45.48;98052.22;5024908;28;20405;-45
2023/05/25 04:38:05;;;;;;;6.70;3.33;;;9.50;67.10;;;12.63;45.90;98046.06;5029702;28;20517;-46
2023/05/25 04:40:34;;;;;;;12.00;5.37;;;9.50;67.80;;;12.60;45.73;98052.56;5029443;28;20108;-45
2023/05/25 04:43:03;;;;;;;14.37;4.23;;;9.40;67.70;;;12.57;45.85;98042.22;5029226;28;20065;-48
2023/05/25 04:45:32;;;;;;;8.20;4.77;;;9.50;67.90;;;12.55;45.94;98046.88;5029592;28;20049;-45
2023/05/25 04:48:01;;;;;;;8.83;3.53;;;9.50;68.00;;;12.59;46.01;98047.41;5029339;28;20057;-45
2023/05/25 04:50:29;;;;;;;9.17;4.87;;;9.50;68.20;;;12.59;46.24;98048.22;5021265;28;20045;-44
2023/05/25 04:52:57;;;;;;;8.97;4.37;;;9.60;68.30;;;12.58;46.42;98051.91;5029524;28;20037;-46
2023/05/25 04:55:24;;;;;;;8.70;4.13;;;9.50;68.10;;;12.58;46.28;98051.06;5029792;28;20393;-44
2023/05/25 04:57:53;;;;;;;10.47;4.13;;;9.50;68.50;;;12.56;46.74;98058.41;5013162;28;20053;-44
2023/05/25 05:00:21;;;;;;;7.57;5.63;;;9.60;68.80;;;12.64;46.63;98062.91;5034333;28;20113;-45
2023/05/25 05:02:55;;;;;;;7.23;4.33;;;9.60;68.90;;;12.71;46.29;98061.28;5033759;28;20049;-45
2023/05/25 05:05:23;;;;;;;15.20;6.43;;;9.70;68.90;;;12.72;46.68;98061.09;5033309;28;20042;-45
2023/05/25 05:07:53;;;;;;;8.60;4.23;;;9.80;68.40;;;12.73;46.56;98062.75;5032596;28;20050;-47
2023/05/25 05:10:21;;;;;;;8.90;4.50;;;9.80;68.20;;;12.79;46.44;98053.25;5032857;28;20054;-44
2023/05/25 05:12:53;;;;;;;6.60;3.75;;;9.90;68.30;;;12.74;46.96;98060.94;5032702;28;20049;-44
2023/05/25 05:15:21;;;;;;;7.03;4.73;;;9.80;68.60;;;12.75;46.74;98070.63;5032698;28;20042;-44
2023/05/25 05:17:49;;;;;;;9.57;4.73;;;9.80;68.80;;;12.74;47.02;98075.13;5016394;28;20045;-46
2023/05/25 05:20:19;;;;;;;10.27;4.47;;;9.80;68.70;;;12.76;46.70;98078.47;5032407;28;20061;-46
2023/05/25 05:22:47;;;;;;;10.20;4.53;;;9.80;68.20;;;12.84;46.82;98085.66;5034148;28;20412;-44
2023/05/25 05:25:16;;;;;;;11.37;4.03;;;10.00;68.00;;;12.93;46.60;98090.03;5033013;28;20045;-44
2023/05/25 05:27:45;;;;;;;10.33;4.43;;;10.10;67.00;;;12.96;46.71;98081.66;5032609;28;20105;-45
2023/05/25 05:30:18;;;;;;;10.17;5.07;;;10.20;66.90;;;13.06;46.29;98086.03;5031819;28;20513;-44
2023/05/25 05:32:45;;;;;;;10.90;5.17;;;10.30;66.70;;;13.11;46.45;98091.72;5032613;28;20052;-46
2023/05/25 05:35:14;;;;;;;14.27;4.93;;;10.40;66.20;;;13.16;46.30;98092.03;5031602;28;20053;-46
2023/05/25 05:37:46;;;;;;;12.80;5.10;;;10.50;65.80;;;13.19;46.34;98081.84;5032845;28;20050;-47
2023/05/25 05:40:14;;;;;;;11.80;5.53;;;10.60;65.60;;;13.16;46.47;98089.38;5031933;28;20057;-45
2023/05/25 05:42:42;;;;;;;12.27;5.00;;;10.50;65.60;;;13.20;46.40;98091.56;5032397;28;20053;-46
2023/05/25 05:45:12;;;;;;;9.07;4.13;;;10.60;65.60;;;13.22;46.61;98095.88;5032664;28;20050;-47
2023/05/25 05:47:39;;;;;;;8.50;4.83;;;10.60;66.60;;;13.28;46.44;98098.75;5033258;28;20041;-45
2023/05/25 05:50:08;;;;;;;9.50;4.60;;;10.70;66.00;;;13.36;46.48;98103.28;5031904;28;20045;-45
2023/05/25 05:52:37;;;;;;;11.47;5.40;;;10.70;65.80;;;13.38;46.46;98114.66;5033603;28;20040;-46
2023/05/25 05:55:05;;;;;;;11.07;5.87;;;10.80;65.60;;;13.41;46.31;98116.97;5032323;28;20417;-47
2023/05/25 05:57:33;;;;;;;8.90;4.20;;;10.80;65.60;;;13.50;46.27;98123.16;5031869;28;20050;-46
2023/05/25 06:00:02;;;;;;;13.47;6.20;;;10.80;65.60;;;13.55;46.26;98127.00;5031719;28;20045;-47
2023/05/25 06:02:30;;;;;;;8.70;4.27;;;10.90;65.50;;;13.58;46.44;98123.16;5033492;28;20045;-47
2023/05/25 06:04:58;;;;;;;14.73;5.33;;;10.90;66.20;;;13.61;46.29;98122.81;5031979;28;20413;-44
2023/05/25 06:07:27;;;;;;;11.33;5.63;;;10.90;65.80;;;13.68;46.15;98121.13;5031651;28;20042;-49
2023/05/25 06:09:56;;;;;;;7.33;4.40;;;11.00;65.50;;;13.77;46.22;98125.47;5031098;28;20052;-47
2023/05/25 06:12:24;;;;;;;9.40;6.53;;;11.20;65.30;;;13.81;46.29;98127.81;5031438;28;20414;-46
2023/05/25 06:14:52;;;;;;;11.13;5.27;;;11.20;65.20;;;13.76;45.95;98131.84;5031629;28;20060;-47
2023/05/25 06:17:20;;;;;;;10.73;4.47;;;11.00;64.90;;;13.74;46.31;98133.00;5031367;28;20068;-45
2023/05/25 06:19:48;;;;;;;9.93;4.73;;;11.00;65.40;;;13.82;46.33;98134.81;5031745;28;20049;-46
2023/05/25 06:22:16;;;;;;;12.33;5.03;;;11.10;65.50;;;13.91;46.08;98142.66;5031144;28;20440;-45
2023/05/25 06:24:44;;;;;;;11.40;5.07;;;11.20;65.00;;;13.99;45.94;98137.28;5032973;28;20492;-44
2023/05/25 06:27:13;;;;;;;7.93;4.60;;;11.40;64.70;;;14.07;45.75;98141.78;5031591;28;20072;-45
2023/05/25 06:29:41;;;;;;;8.97;5.73;;;11.40;64.20;;;14.09;45.71;98138.94;5032935;28;20033;-47
2023/05/25 06:32:09;;;;;;;8.77;4.35;;;11.40;64.10;;;14.16;45.68;98131.91;5030722;28;20045;-44
2023/05/25 06:34:38;;;;;;;8.53;4.43;;;11.50;63.80;;;14.21;45.56;98134.06;5030424;28;20124;-44
2023/05/25 06:37:06;;;;;;;7.63;3.92;;;11.60;63.90;;;14.24;45.65;98139.91;5031051;28;20049;-47
2023/05/25 06:39:35;;;;;;;11.02;5.00;;;11.60;63.60;;;14.30;45.33;98138.38;5031489;28;20064;-45
2023/05/25 06:42:03;;;;;;;8.95;4.90;;;11.60;63.10;;;14.25;45.61;98136.22;5031059;28;20046;-48
2023/05/25 06:45:06;;;;;;;11.57;4.93;;;11.50;64.00;;;14.26;45.49;98150.44;5029035;28;20049;-45
2023/05/25 06:47:34;;;;;;;11.97;4.73;;;11.50;64.30;;;14.30;45.56;98141.06;5032380;28;20033;-47
2023/05/25 06:50:03;;;;;;;12.07;6.38;;;11.60;64.20;;;14.34;45.82;98148.56;5030586;28;20068;-47
2023/05/25 06:52:30;;;;;;;8.30;5.03;;;11.60;64.40;;;14.41;45.49;98147.91;5023191;28;20216;-47
2023/05/25 06:54:58;;;;;;;10.27;5.35;;;11.70;64.10;;;14.44;45.40;98151.03;5032336;28;20049;-47
2023/05/25 06:57:26;;;;;;;8.80;5.00;;;11.80;63.80;;;14.43;45.43;98153.91;5030742;28;20053;-47
2023/05/25 06:59:53;;;;;;;9.80;5.57;;;11.70;63.90;;;14.51;45.17;98153.88;5030982;28;20041;-46
2023/05/25 07:02:21;;;;;;;21.60;5.95;;;11.80;63.90;;;14.57;45.35;98154.03;5032185;28;20052;-46
2023/05/25 07:04:48;;;;;;;11.27;5.50;;;11.90;63.90;;;14.62;45.30;98152.69;5032449;28;20056;-46
2023/05/25 07:07:16;;;;;;;8.65;5.03;;;11.90;63.60;;;14.66;45.57;98154.03;5032441;28;20038;-45
2023/05/25 07:09:44;;;;;;;14.70;4.78;;;12.00;64.00;;;14.73;45.67;98157.66;5032504;28;20132;-45
2023/05/25 07:12:13;;;;;;;8.68;5.22;;;12.10;64.10;;;14.83;45.29;98155.59;5031273;28;20055;-47
2023/05/25 07:14:40;;;;;;;12.30;5.30;;;12.20;63.20;;;14.90;45.32;98155.72;5032190;28;20045;-45
2023/05/25 07:17:09;;;;;;;9.30;4.30;;;12.30;63.00;;;14.99;45.30;98153.84;5031710;28;20045;-47
2023/05/25 07:19:36;;;;;;;14.25;5.43;;;12.40;62.90;;;15.05;45.16;98156.66;5030840;28;20041;-46
2023/05/25 07:22:04;;;;;;;14.68;5.28;;;12.50;62.30;;;15.04;45.13;98159.50;5031091;28;20401;-45
2023/05/25 07:24:32;;;;;;;9.40;5.65;;;12.50;62.40;;;15.21;45.34;98160.22;5031884;28;20033;-45
2023/05/25 07:27:01;;;;;;;8.65;5.68;;;12.60;63.10;;;15.42;44.82;98165.78;5031568;28;20042;-48
2023/05/25 07:29:28;;;;;;;9.98;5.20;;;12.90;62.50;;;15.63;44.61;98165.09;5026395;28;20486;-45
2023/05/25 07:31:56;;;;;;;13.70;6.15;;;13.10;61.80;;;15.81;44.49;98166.66;5031362;28;20501;-49
2023/05/25 07:34:23;;;;;;;54.13;29.65;;;13.30;61.50;;;16.00;44.31;98165.31;5030169;28;20056;-46
2023/05/25 07:36:54;;;;;;;14.18;8.57;;;13.50;61.00;;;16.22;44.08;98152.81;5031509;28;20041;-45
2023/05/25 07:39:22;;;;;;;11.57;5.45;;;13.70;60.40;;;16.42;43.68;98147.72;5030412;28;20061;-46
2023/05/25 07:41:49;;;;;;;10.45;4.93;;;13.90;59.80;;;16.56;43.08;98148.75;5031014;28;20515;-46
2023/05/25 07:44:17;;;;;;;10.70;5.43;;;13.90;58.60;;;16.52;42.81;98149.13;5014042;28;20049;-50
2023/05/25 07:46:44;;;;;;;9.93;4.57;;;13.80;59.10;;;16.57;42.97;98153.91;5031317;28;20049;-46
2023/05/25 07:49:15;;;;;;;10.75;5.72;;;13.90;59.50;;;16.65;43.08;98145.78;5031326;28;20417;-45
2023/05/25 07:51:44;;;;;;;10.10;5.00;;;14.00;59.20;;;16.80;42.88;98150.28;5031004;28;20056;-47
2023/05/25 07:54:12;;;;;;;13.23;5.38;;;14.20;59.20;;;16.89;42.78;98165.31;5031174;28;20055;-50
2023/05/25 07:56:39;;;;;;;10.45;4.95;;;14.20;58.70;;;17.00;42.34;98158.59;5031222;28;20065;-45
2023/05/25 07:59:07;;;;;;;7.05;5.28;;;14.40;58.40;;;17.09;42.18;98160.16;5030987;28;20049;-45
2023/05/25 08:01:35;;;;;;;11.15;5.63;;;14.40;58.30;;;17.16;41.98;98160.22;5022987;28;20050;-46
2023/05/25 08:04:03;;;;;;;11.95;5.15;;;14.50;58.20;;;17.21;41.92;98160.47;5030945;28;20064;-45
2023/05/25 08:06:33;;;;;;;11.30;4.95;;;14.50;57.90;;;17.30;42.02;98162.03;5031017;28;20041;-46
2023/05/25 08:09:03;;;;;;;11.90;4.88;;;14.70;57.70;;;17.37;42.21;98156.69;5031087;28;20052;-50
2023/05/25 08:11:31;;;;;;;8.60;4.78;;;14.80;57.40;;;17.45;41.88;98157.41;5030779;28;20109;-48
2023/05/25 08:13:59;;;;;;;9.75;5.82;;;14.90;57.20;;;17.43;41.59;98150.56;5031069;28;20041;-46
2023/05/25 08:16:27;;;;;;;10.18;5.13;;;14.80;56.80;;;17.46;41.21;98155.56;5029705;28;20049;-49
2023/05/25 08:18:54;;;;;;;11.77;5.43;;;14.70;56.60;;;17.40;41.60;98159.84;5030634;28;20049;-45
2023/05/25 08:21:23;;;;;;;9.43;5.32;;;14.70;57.60;;;17.40;41.51;98165.22;5030564;28;20567;-46
2023/05/25 08:23:52;;;;;;;9.73;4.80;;;14.70;57.30;;;17.52;41.92;98160.16;5031694;28;20052;-45
2023/05/25 08:26:21;;;;;;;9.52;5.80;;;14.80;58.00;;;17.62;41.85;98163.38;5013740;28;20053;-46
2023/05/25 08:28:52;;;;;;;12.75;5.82;;;15.00;57.70;;;17.62;41.75;98165.22;5029799;28;20029;-47
2023/05/25 08:31:19;;;;;;;13.27;5.82;;;15.10;57.40;;;17.69;41.96;98158.88;5030436;28;20041;-50
2023/05/25 08:33:47;;;;;;;13.85;6.30;;;15.10;57.60;;;17.84;41.76;98158.81;5033858;28;20033;-47
2023/05/25 08:36:15;;;;;;;13.43;6.55;;;15.30;57.30;;;17.97;41.71;98163.50;5035628;28;20128;-46
2023/05/25 08:38:42;;;;;;;9.25;6.28;;;15.50;58.00;;;18.03;41.80;98167.22;5034952;28;20068;-47
2023/05/25 08:41:12;;;;;;;10.25;5.75;;;15.50;57.00;;;18.05;41.68;98165.22;5034628;28;20053;-47
2023/05/25 08:43:40;;;;;;;14.38;5.90;;;15.60;56.90;;;18.03;41.46;98167.22;5033659;28;20052;-46
2023/05/25 08:46:08;;;;;;;11.27;5.57;;;15.50;56.80;;;18.12;41.72;98173.31;5034764;28;20052;-46
2023/05/25 08:48:37;;;;;;;11.75;6.32;;;15.60;57.20;;;18.22;41.65;98171.97;5034651;28;20037;-48
2023/05/25 08:51:15;;;;;;;13.02;6.68;;;15.70;56.90;;;18.32;41.59;98170.75;5034662;28;20052;-47
2023/05/25 08:53:43;;;;;;;12.35;6.60;;;15.80;56.80;;;18.38;41.67;98176.19;5027077;28;20049;-46
2023/05/25 08:56:19;;;;;;;11.80;5.85;;;15.90;57.00;;;18.41;41.72;98175.78;5034552;28;20159;-47
2023/05/25 08:59:14;;;;;;;14.65;6.32;;;16.00;56.60;;;18.45;41.69;98171.66;5027852;28;20049;-47
2023/05/25 09:01:50;;;;;;;10.55;5.95;;;16.00;56.00;;;18.36;41.62;98159.38;5025681;28;20056;-46
2023/05/25 09:04:19;;;;;;;9.77;6.07;;;15.80;56.60;;;18.25;41.62;98159.94;5034061;28;20094;-46
2023/05/25 09:06:48;;;;;;;12.77;5.97;;;15.70;57.00;;;18.10;41.97;98162.72;5032924;28;20037;-46
2023/05/25 09:09:37;;;;;;;11.27;6.10;;;15.60;57.40;;;18.14;41.69;98160.47;5034186;28;20055;-46
2023/05/25 09:12:06;;;;;;;11.13;6.18;;;15.50;57.20;;;18.18;41.75;98165.25;5034060;28;20493;-47
2023/05/25 09:14:36;;;;;;;11.13;6.22;;;15.60;57.40;;;18.19;42.35;98163.44;5033182;28;20049;-45
2023/05/25 09:17:04;;;;;;;10.57;5.93;;;15.70;58.10;;;18.22;42.23;98161.19;5034060;28;20425;-46
2023/05/25 09:19:33;;;;;;;14.80;6.75;;;15.70;58.00;;;18.09;42.21;98166.47;5016282;28;20053;-45
2023/05/25 09:22:01;;;;;;;15.40;6.90;;;15.60;57.70;;;18.16;42.52;98159.25;5032785;28;20429;-49
2023/05/25 09:24:43;;;;;;;9.80;6.78;;;15.60;58.30;;;18.22;42.37;98160.31;5026750;28;20417;-50
2023/05/25 09:27:16;;;;;;;7.72;5.70;;;15.70;58.00;;;18.25;42.70;98165.31;5034107;28;20048;-47
2023/05/25 09:29:51;;;;;;;12.13;6.30;;;15.80;58.30;;;18.38;42.37;98167.25;5025394;28;20049;-48
2023/05/25 09:32:18;;;;;;;6.38;5.35;;;15.90;57.80;;;18.41;42.36;98167.69;5033405;28;20053;-48
2023/05/25 09:34:47;;;;;;;12.90;6.50;;;16.00;57.60;;;18.54;41.97;98174.22;5033105;28;20046;-47
2023/05/25 09:37:17;;;;;;;12.93;7.20;;;16.20;56.80;;;18.63;41.97;98168.44;5033558;28;20049;-48
2023/05/25 09:39:46;;;;;;;11.73;6.97;;;16.30;56.80;;;18.80;42.22;98171.66;5025202;28;20052;-46
2023/05/25 09:42:15;;;;;;;12.77;7.57;;;16.40;57.20;;;18.90;41.85;98168.56;5033160;28;20520;-46
2023/05/25 09:44:43;;;;;;;7.65;6.47;;;16.60;56.80;;;19.11;41.48;98175.69;5025434;28;20052;-48
2023/05/25 09:47:12;;;;;;;10.30;5.78;;;16.80;56.40;;;19.32;41.45;98176.59;5032232;28;20421;-48
2023/05/25 09:49:43;;;;;;;12.73;7.35;;;17.00;56.50;;;19.57;41.14;98182.25;5032681;28;20504;-48
2023/05/25 09:52:12;;;;;;;14.05;6.28;;;17.30;55.30;;;19.82;40.80;98177.13;5033331;28;20056;-48
2023/05/25 09:54:47;;;;;;;10.77;6.75;;;17.60;55.20;;;20.04;40.58;98170.44;5034023;28;20037;-46
2023/05/25 09:57:15;;;;;;;10.50;5.88;;;17.80;54.30;;;20.27;40.12;98171.88;5033532;28;20049;-47
2023/05/25 09:59:44;;;;;;;10.15;6.20;;;18.00;54.20;;;20.48;39.87;98180.78;5024502;28;20064;-49
2023/05/25 10:02:13;;;;;;;11.13;6.40;;;18.30;54.10;;;20.63;39.52;98181.41;5033310;28;20493;-46
2023/05/25 10:04:40;;;;;;;13.52;6.90;;;18.40;52.00;;;20.68;38.94;98181.56;5033232;28;20080;-45
2023/05/25 10:07:08;;;;;;;9.57;6.43;;;18.40;50.60;;;20.68;38.53;98175.34;5033156;28;20048;-51
2023/05/25 10:09:41;;;;;;;9.27;6.72;;;18.30;51.80;;;20.78;38.69;98173.00;5033196;28;20045;-51
2023/05/25 10:12:10;;;;;;;12.43;6.32;;;18.50;51.90;;;20.94;38.40;98175.25;5032999;28;20046;-46
2023/05/25 10:14:39;;;;;;;8.48;6.55;;;18.50;51.50;;;21.05;38.80;98176.44;5032001;28;20041;-49
2023/05/25 10:17:10;;;;;;;9.43;6.00;;;18.70;52.10;;;21.18;38.32;98170.13;5033131;28;20049;-48
2023/05/25 10:19:51;;;;;;;10.20;6.65;;;18.90;51.50;;;21.23;38.41;98167.63;5033087;28;20053;-48
2023/05/25 10:22:35;;;;;;;13.05;6.55;;;18.90;51.30;;;21.32;38.69;98170.88;5031580;28;20200;-49
2023/05/25 10:25:09;;;;;;;11.80;6.63;;;19.00;51.70;;;21.42;38.60;98168.53;5031980;28;20052;-44
2023/05/25 10:27:58;;;;;;;10.23;6.25;;;19.10;51.70;;;21.35;37.92;98159.63;5031388;28;20057;-49
2023/05/25 10:30:26;;;;;;;12.82;6.03;;;19.00;49.50;;;21.32;38.29;98162.75;5028414;28;20053;-47